createdAt,value
2022-08-10T00:01:53.080Z,19.00
2022-08-10T00:04:24.594Z,18.90
2022-08-10T00:06:55.317Z,18.90
2022-08-10T00:09:23.215Z,18.90
2022-08-10T00:11:49.879Z,18.80
2022-08-10T00:14:16.958Z,18.70
2022-08-10T00:16:43.647Z,18.60
2022-08-10T00:19:10.412Z,18.50
2022-08-10T00:21:37.620Z,18.50
2022-08-10T00:24:04.466Z,18.50
2022-08-10T00:27:52.967Z,18.50
2022-08-10T00:29:17.926Z,18.50
2022-08-10T00:31:58.114Z,18.50
2022-08-10T00:34:27.540Z,18.50
2022-08-10T00:36:54.536Z,18.40
2022-08-10T00:39:22.511Z,18.30
2022-08-10T00:42:06.436Z,18.30
2022-08-10T00:44:38.829Z,18.40
2022-08-10T00:47:06.733Z,18.30
2022-08-10T00:49:33.666Z,18.30
2022-08-10T00:52:00.636Z,18.30
2022-08-10T00:54:27.927Z,18.30
2022-08-10T00:57:16.584Z,18.30
2022-08-10T00:59:57.975Z,18.20
2022-08-10T01:02:28.205Z,18.20
2022-08-10T01:05:00.081Z,18.10
2022-08-10T01:07:53.254Z,18.20
2022-08-10T01:10:31.668Z,18.10
2022-08-10T01:13:06.507Z,18.10
2022-08-10T01:15:52.897Z,18.00
2022-08-10T01:18:40.103Z,18.00
2022-08-10T01:21:28.212Z,18.00
2022-08-10T01:24:32.280Z,18.00
2022-08-10T01:27:28.068Z,17.90
2022-08-10T01:30:06.884Z,17.90
2022-08-10T01:32:42.057Z,17.90
2022-08-10T01:35:18.267Z,17.90
2022-08-10T01:37:52.548Z,17.90
2022-08-10T01:40:25.244Z,17.80
2022-08-10T01:42:54.372Z,17.80
2022-08-10T01:45:24.293Z,17.80
2022-08-10T01:47:53.798Z,17.70
2022-08-10T01:50:26.239Z,17.70
2022-08-10T01:53:00.732Z,17.60
2022-08-10T01:55:28.804Z,17.60
2022-08-10T01:57:56.588Z,17.50
2022-08-10T02:00:24.823Z,17.40
2022-08-10T02:02:53.594Z,17.40
2022-08-10T02:05:24.106Z,17.40
2022-08-10T02:07:51.451Z,17.40
2022-08-10T02:10:19.685Z,17.50
2022-08-10T02:12:48.336Z,17.50
2022-08-10T02:15:20.548Z,17.50
2022-08-10T02:17:59.259Z,17.50
2022-08-10T02:20:42.219Z,17.40
2022-08-10T02:23:20.890Z,17.50
2022-08-10T02:25:49.892Z,17.50
2022-08-10T02:28:27.083Z,17.50
2022-08-10T02:31:03.525Z,17.50
2022-08-10T02:33:36.924Z,17.50
2022-08-10T02:36:07.735Z,17.60
2022-08-10T02:39:00.943Z,17.60
2022-08-10T02:45:13.461Z,17.70
2022-08-10T02:45:29.077Z,17.70
2022-08-10T02:47:51.159Z,17.60
2022-08-10T02:50:39.969Z,17.70
2022-08-10T02:53:55.884Z,17.60
2022-08-10T02:56:20.271Z,17.60
2022-08-10T02:58:56.654Z,17.60
2022-08-10T03:01:30.599Z,17.60
2022-08-10T03:04:00.968Z,17.60
2022-08-10T03:06:34.760Z,17.60
2022-08-10T03:09:03.454Z,17.50
2022-08-10T03:12:37.935Z,17.50
2022-08-10T03:14:19.901Z,17.50
2022-08-10T03:16:47.391Z,17.50
2022-08-10T03:20:35.234Z,17.50
2022-08-10T03:22:03.951Z,17.50
2022-08-10T03:24:32.983Z,17.50
2022-08-10T03:27:00.356Z,17.50
2022-08-10T03:29:28.641Z,17.50
2022-08-10T03:31:56.364Z,17.40
2022-08-10T03:34:33.452Z,17.50
2022-08-10T03:37:00.732Z,17.50
2022-08-10T03:39:27.806Z,17.50
2022-08-10T03:41:58.284Z,17.50
2022-08-10T03:44:32.323Z,17.40
2022-08-10T03:47:01.049Z,17.30
2022-08-10T03:49:29.634Z,17.40
2022-08-10T03:51:57.849Z,17.30
2022-08-10T03:54:25.972Z,17.40
2022-08-10T03:56:52.820Z,17.40
2022-08-10T03:59:20.164Z,17.40
2022-08-10T04:02:44.992Z,17.30
2022-08-10T04:04:34.445Z,17.30
2022-08-10T04:07:02.854Z,17.40
2022-08-10T04:09:54.118Z,17.40
2022-08-10T04:12:21.206Z,17.40
2022-08-10T04:14:51.125Z,17.30
2022-08-10T04:18:02.830Z,17.40
2022-08-10T04:20:34.849Z,17.20
2022-08-10T04:23:06.426Z,17.20
2022-08-10T04:25:33.530Z,17.10
2022-08-10T04:28:00.810Z,17.10
2022-08-10T04:30:31.239Z,17.10
2022-08-10T04:33:00.007Z,17.10
2022-08-10T04:35:28.837Z,17.20
2022-08-10T04:37:57.049Z,17.20
2022-08-10T04:40:25.463Z,17.20
2022-08-10T04:42:55.769Z,17.20
2022-08-10T04:45:47.518Z,17.30
2022-08-10T04:48:40.181Z,17.30
2022-08-10T04:51:01.942Z,17.30
2022-08-10T04:53:29.028Z,17.30
2022-08-10T04:55:55.651Z,17.30
2022-08-10T04:58:22.271Z,17.40
2022-08-10T05:00:48.934Z,17.60
2022-08-10T05:03:15.573Z,17.60
2022-08-10T05:05:42.232Z,17.70
2022-08-10T05:08:08.856Z,17.60
2022-08-10T05:10:35.467Z,17.70
2022-08-10T05:13:02.146Z,17.70
2022-08-10T05:15:28.823Z,17.80
2022-08-10T05:18:08.844Z,17.90
2022-08-10T05:20:37.109Z,17.90
2022-08-10T05:23:03.851Z,17.90
2022-08-10T05:25:32.811Z,18.00
2022-08-10T05:28:06.446Z,18.10
2022-08-10T05:30:33.888Z,18.30
2022-08-10T05:33:05.049Z,18.40
2022-08-10T05:35:51.794Z,18.40
2022-08-10T05:38:22.794Z,18.40
2022-08-10T05:40:49.941Z,18.30
2022-08-10T05:43:19.379Z,18.60
2022-08-10T05:46:17.055Z,18.60
2022-08-10T05:48:41.733Z,18.60
2022-08-10T05:51:23.014Z,18.80
2022-08-10T05:54:02.656Z,19.00
2022-08-10T05:56:54.870Z,19.20
2022-08-10T06:00:32.955Z,19.10
2022-08-10T06:02:31.260Z,19.40
2022-08-10T06:05:14.303Z,19.30
2022-08-10T06:07:49.181Z,19.30
2022-08-10T06:10:30.982Z,19.50
2022-08-10T06:13:04.147Z,19.60
2022-08-10T06:15:50.910Z,19.70
2022-08-10T06:18:19.827Z,19.80
2022-08-10T06:20:47.278Z,19.90
2022-08-10T06:23:14.279Z,19.80
2022-08-10T06:26:10.502Z,19.90
2022-08-10T06:28:32.488Z,20.00
2022-08-10T06:31:01.498Z,20.00
2022-08-10T06:33:31.374Z,20.00
2022-08-10T06:35:59.118Z,20.10
2022-08-10T06:38:28.877Z,20.30
2022-08-10T06:41:02.252Z,20.30
2022-08-10T06:43:30.698Z,20.50
2022-08-10T06:46:08.828Z,20.50
2022-08-10T06:48:47.172Z,20.60
2022-08-10T06:51:20.373Z,20.70
2022-08-10T06:53:54.202Z,20.60
2022-08-10T06:56:37.757Z,20.70
2022-08-10T06:59:22.121Z,20.90
2022-08-10T07:01:58.257Z,21.00
2022-08-10T07:04:32.700Z,21.00
2022-08-10T07:07:04.089Z,20.90
2022-08-10T07:09:32.896Z,21.00
2022-08-10T07:12:07.816Z,21.00
2022-08-10T07:14:45.088Z,21.00
2022-08-10T07:17:15.387Z,21.00
2022-08-10T07:19:50.534Z,21.30
2022-08-10T07:23:27.060Z,21.50
2022-08-10T07:25:08.562Z,21.60
2022-08-10T07:27:39.100Z,21.60
2022-08-10T07:30:25.983Z,21.60
2022-08-10T07:32:53.216Z,21.70
2022-08-10T07:35:22.842Z,21.80
2022-08-10T07:37:52.502Z,21.80
2022-08-10T07:40:21.635Z,21.80
2022-08-10T07:42:53.703Z,21.90
2022-08-10T07:45:20.762Z,22.20
2022-08-10T07:48:08.007Z,22.20
2022-08-10T07:50:38.695Z,22.40
2022-08-10T07:53:09.780Z,22.50
2022-08-10T07:56:08.169Z,22.60
2022-08-10T07:58:33.967Z,22.70
2022-08-10T08:01:01.449Z,22.90
2022-08-10T08:03:30.711Z,23.00
2022-08-10T08:06:05.355Z,23.00
2022-08-10T08:08:38.684Z,23.00
2022-08-10T08:11:06.200Z,23.10
2022-08-10T08:13:35.281Z,23.20
2022-08-10T08:16:19.360Z,23.10
2022-08-10T08:19:16.348Z,23.10
2022-08-10T08:24:08.090Z,23.30
2022-08-10T08:24:31.005Z,23.40
2022-08-10T08:27:00.650Z,23.30
2022-08-10T08:29:28.353Z,23.30
2022-08-10T08:32:02.723Z,23.30
2022-08-10T08:34:32.420Z,23.50
2022-08-10T08:37:00.825Z,23.40
2022-08-10T08:39:27.958Z,23.50
2022-08-10T08:42:16.515Z,23.60
2022-08-10T08:45:14.587Z,23.80
2022-08-10T08:48:04.466Z,23.80
2022-08-10T08:50:47.233Z,23.90
2022-08-10T08:53:23.669Z,24.20
2022-08-10T08:56:17.468Z,24.30
2022-08-10T08:59:05.664Z,24.30
2022-08-10T09:02:28.950Z,24.30
2022-08-10T09:05:01.298Z,24.20
2022-08-10T09:07:59.923Z,24.30
2022-08-10T09:10:58.774Z,24.50
2022-08-10T09:13:39.530Z,24.60
2022-08-10T09:16:17.806Z,24.50
2022-08-10T09:19:35.633Z,24.70
2022-08-10T09:22:17.421Z,24.80
2022-08-10T09:25:08.847Z,25.00
2022-08-10T09:27:56.423Z,25.10
2022-08-10T09:30:32.196Z,25.10
2022-08-10T09:36:24.066Z,25.40
2022-08-10T09:36:32.369Z,25.40
2022-08-10T09:39:03.105Z,25.40
2022-08-10T09:41:37.616Z,25.10
2022-08-10T09:44:23.004Z,25.30
2022-08-10T09:47:13.474Z,25.40
2022-08-10T09:50:04.225Z,25.50
2022-08-10T09:52:58.911Z,25.50
2022-08-10T09:56:17.916Z,25.30
2022-08-10T09:59:29.362Z,25.20
2022-08-10T10:02:04.128Z,25.50
2022-08-10T10:04:59.030Z,25.70
2022-08-10T10:07:29.577Z,25.80
2022-08-10T10:10:26.638Z,25.80
2022-08-10T10:13:03.295Z,25.90
2022-08-10T10:16:08.945Z,26.10
2022-08-10T10:18:54.604Z,26.30
2022-08-10T10:21:55.321Z,26.10
2022-08-10T10:24:56.843Z,26.30
2022-08-10T10:27:48.981Z,26.30
2022-08-10T10:30:18.855Z,26.40
2022-08-10T10:33:13.088Z,26.50
2022-08-10T10:36:07.935Z,26.70
2022-08-10T10:38:37.641Z,26.20
2022-08-10T10:41:21.602Z,26.30
2022-08-10T10:44:07.617Z,26.30
2022-08-10T10:46:55.810Z,26.20
2022-08-10T10:50:09.924Z,26.00
2022-08-10T10:53:02.411Z,25.90
2022-08-10T10:56:13.307Z,26.00
2022-08-10T10:58:38.823Z,26.00
2022-08-10T11:01:44.284Z,26.10
2022-08-10T11:04:26.655Z,26.50
2022-08-10T11:07:11.359Z,26.40
2022-08-10T11:10:08.982Z,26.60
2022-08-10T11:13:03.915Z,26.80
2022-08-10T11:16:08.994Z,26.80
2022-08-10T11:18:55.404Z,27.00
2022-08-10T11:21:50.049Z,27.10
2022-08-10T11:24:49.103Z,27.20
2022-08-10T11:27:21.791Z,27.40
2022-08-10T11:29:58.041Z,27.40
2022-08-10T11:32:29.629Z,27.50
2022-08-10T11:35:22.446Z,27.60
2022-08-10T11:38:32.817Z,27.20
2022-08-10T11:42:06.720Z,27.10
2022-08-10T11:44:29.719Z,27.30
2022-08-10T11:47:04.708Z,27.10
2022-08-10T11:49:37.607Z,27.10
2022-08-10T11:52:09.053Z,27.30
2022-08-10T11:54:53.634Z,27.30
2022-08-10T11:57:24.102Z,27.50
2022-08-10T12:00:11.607Z,27.20
2022-08-10T12:02:54.140Z,27.40
2022-08-10T12:05:54.528Z,27.40
2022-08-10T12:10:06.816Z,27.40
2022-08-10T12:11:05.734Z,27.40
2022-08-10T12:13:58.496Z,27.40
2022-08-10T12:16:34.830Z,27.50
2022-08-10T12:19:02.817Z,27.30
2022-08-10T12:21:52.682Z,27.60
2022-08-10T12:24:39.851Z,27.60
2022-08-10T12:27:13.042Z,27.50
2022-08-10T12:29:52.156Z,27.50
2022-08-10T12:32:32.211Z,27.50
2022-08-10T12:35:12.197Z,27.80
2022-08-10T12:37:59.908Z,27.90
2022-08-10T12:40:36.805Z,27.80
2022-08-10T12:44:05.644Z,27.60
2022-08-10T12:46:28.403Z,27.70
2022-08-10T12:49:08.993Z,27.70
2022-08-10T12:51:40.059Z,27.80
2022-08-10T12:54:32.241Z,28.00
2022-08-10T12:57:09.915Z,28.30
2022-08-10T12:59:42.916Z,28.20
2022-08-10T13:02:14.112Z,28.40
2022-08-10T13:04:43.091Z,28.50
2022-08-10T13:07:10.961Z,28.30
2022-08-10T13:10:08.491Z,28.20
2022-08-10T13:12:40.469Z,28.30
2022-08-10T13:15:45.971Z,28.40
2022-08-10T13:18:18.400Z,28.40
2022-08-10T13:20:51.530Z,28.40
2022-08-10T13:23:23.508Z,28.50
2022-08-10T13:25:52.215Z,28.60
2022-08-10T13:28:35.768Z,28.60
2022-08-10T13:31:16.878Z,28.50
2022-08-10T13:34:40.410Z,28.50
2022-08-10T13:36:48.953Z,28.60
2022-08-10T13:39:22.578Z,28.50
2022-08-10T13:41:50.930Z,28.30
2022-08-10T13:44:32.707Z,28.20
2022-08-10T13:47:00.167Z,28.20
2022-08-10T13:49:30.366Z,28.00
2022-08-10T13:51:58.518Z,27.90
2022-08-10T13:54:35.497Z,28.20
2022-08-10T13:57:02.940Z,28.20
2022-08-10T14:00:35.198Z,28.00
2022-08-10T14:02:25.932Z,27.80
2022-08-10T14:04:55.855Z,27.90
2022-08-10T14:07:24.083Z,27.60
2022-08-10T14:09:53.129Z,27.60
2022-08-10T14:12:31.867Z,27.60
2022-08-10T14:15:02.870Z,27.70
2022-08-10T14:17:31.582Z,27.60
2022-08-10T14:19:59.588Z,27.60
2022-08-10T14:22:33.858Z,27.60
2022-08-10T14:25:10.317Z,27.50
2022-08-10T14:28:03.700Z,27.50
2022-08-10T14:30:32.153Z,27.40
2022-08-10T14:33:00.636Z,27.50
2022-08-10T14:36:21.464Z,27.40
2022-08-10T14:38:20.830Z,27.40
2022-08-10T14:40:52.198Z,27.30
2022-08-10T14:43:28.607Z,27.20
2022-08-10T14:46:05.657Z,27.40
2022-08-10T14:48:40.666Z,27.20
2022-08-10T14:51:09.059Z,27.10
2022-08-10T14:53:38.181Z,26.90
2022-08-10T14:56:09.217Z,26.80
2022-08-10T14:59:05.717Z,26.90
2022-08-10T15:02:00.064Z,26.80
2022-08-10T15:04:22.129Z,26.90
2022-08-10T15:06:55.736Z,27.00
2022-08-10T15:09:25.549Z,27.00
2022-08-10T15:12:13.533Z,26.90
2022-08-10T15:14:46.214Z,27.00
2022-08-10T15:17:35.128Z,26.90
2022-08-10T15:20:15.342Z,26.90
2022-08-10T15:22:47.292Z,26.80
2022-08-10T15:25:24.393Z,26.80
2022-08-10T15:28:16.744Z,27.00
2022-08-10T15:30:46.769Z,26.80
2022-08-10T15:33:21.638Z,27.00
2022-08-10T15:36:07.882Z,27.00
2022-08-10T15:38:38.976Z,27.00
2022-08-10T15:41:11.243Z,26.80
2022-08-10T15:43:44.371Z,27.00
2022-08-10T15:46:22.675Z,27.00
2022-08-10T15:49:01.839Z,26.90
2022-08-10T15:51:53.409Z,26.90
2022-08-10T15:54:33.793Z,27.10
2022-08-10T15:57:10.934Z,26.90
2022-08-10T15:59:44.815Z,27.10
2022-08-10T16:02:17.727Z,27.00
2022-08-10T16:04:56.927Z,26.90
2022-08-10T16:07:45.873Z,26.90
2022-08-10T16:10:25.679Z,27.10
2022-08-10T16:13:50.782Z,27.10
2022-08-10T16:15:59.761Z,27.00
2022-08-10T16:18:32.063Z,27.00
2022-08-10T16:21:32.784Z,26.90
2022-08-10T16:24:15.657Z,26.90
2022-08-10T16:26:51.848Z,26.70
2022-08-10T16:29:22.770Z,26.60
2022-08-10T16:31:58.046Z,26.50
2022-08-10T16:34:27.024Z,26.30
2022-08-10T16:36:59.923Z,26.20
2022-08-10T16:39:59.955Z,26.10
2022-08-10T16:42:23.299Z,26.10
2022-08-10T16:45:04.969Z,26.10
2022-08-10T16:47:35.885Z,25.90
2022-08-10T16:50:06.975Z,25.80
2022-08-10T16:52:34.703Z,25.90
2022-08-10T16:55:23.368Z,25.70
2022-08-10T16:57:54.439Z,25.80
2022-08-10T17:00:23.434Z,25.90
2022-08-10T17:02:55.411Z,25.80
2022-08-10T17:06:03.561Z,25.70
2022-08-10T17:08:17.364Z,25.60
2022-08-10T17:10:44.495Z,25.50
2022-08-10T17:13:13.929Z,25.50
2022-08-10T17:15:49.903Z,25.40
2022-08-10T17:18:18.301Z,25.40
2022-08-10T17:20:45.290Z,25.50
2022-08-10T17:23:13.699Z,25.50
2022-08-10T17:25:48.235Z,25.50
2022-08-10T17:28:33.290Z,25.40
2022-08-10T17:31:23.915Z,25.50
2022-08-10T17:34:12.184Z,25.30
2022-08-10T17:36:40.537Z,25.20
2022-08-10T17:39:11.657Z,25.30
2022-08-10T17:41:40.142Z,25.20
2022-08-10T17:44:09.180Z,25.10
2022-08-10T17:46:40.399Z,25.10
2022-08-10T17:49:09.699Z,24.90
2022-08-10T17:51:39.206Z,24.90
2022-08-10T17:54:09.029Z,24.90
2022-08-10T17:56:38.047Z,24.70
2022-08-10T17:59:16.884Z,24.60
2022-08-10T18:02:01.659Z,24.60
2022-08-10T18:04:40.880Z,24.50
2022-08-10T18:07:09.895Z,24.50
2022-08-10T18:09:44.333Z,24.50
2022-08-10T18:12:18.224Z,24.40
2022-08-10T18:14:49.356Z,24.30
2022-08-10T18:17:22.940Z,24.30
2022-08-10T18:19:57.806Z,24.20
2022-08-10T18:22:25.640Z,24.10
2022-08-10T18:24:53.926Z,24.10
2022-08-10T18:27:21.139Z,24.00
2022-08-10T18:29:53.329Z,23.90
2022-08-10T18:32:23.196Z,23.90
2022-08-10T18:34:58.268Z,23.90
2022-08-10T18:37:26.836Z,23.80
2022-08-10T18:40:01.789Z,23.80
2022-08-10T18:42:45.808Z,23.70
2022-08-10T18:45:27.890Z,23.60
2022-08-10T18:48:07.638Z,23.60
2022-08-10T18:50:36.888Z,23.50
2022-08-10T18:53:17.463Z,23.40
2022-08-10T18:56:09.530Z,23.30
2022-08-10T18:59:06.000Z,23.30
2022-08-10T19:02:07.572Z,23.20
2022-08-10T19:05:31.478Z,23.10
2022-08-10T19:08:30.450Z,23.00
2022-08-10T19:11:28.101Z,23.00
2022-08-10T19:14:07.939Z,22.90
2022-08-10T19:17:02.227Z,22.80
2022-08-10T19:20:08.330Z,22.80
2022-08-10T19:22:51.513Z,22.70
2022-08-10T19:26:41.771Z,22.50
2022-08-10T19:30:11.713Z,22.40
2022-08-10T19:32:44.206Z,22.30
2022-08-10T19:35:29.410Z,22.20
2022-08-10T19:38:33.300Z,22.10
2022-08-10T19:41:14.048Z,22.00
2022-08-10T19:44:24.988Z,21.90
2022-08-10T19:47:05.511Z,21.80
2022-08-10T19:49:51.565Z,21.70
2022-08-10T19:52:33.882Z,21.70
2022-08-10T19:55:17.636Z,21.60
2022-08-10T19:57:57.080Z,21.50
2022-08-10T20:00:30.408Z,21.60
2022-08-10T20:03:07.967Z,21.50
2022-08-10T20:06:13.045Z,21.50
2022-08-10T20:09:12.264Z,21.50
2022-08-10T20:12:10.268Z,21.50
2022-08-10T20:14:45.760Z,21.50
2022-08-10T20:17:20.652Z,21.40
2022-08-10T20:20:04.990Z,21.40
2022-08-10T20:22:39.179Z,21.40
2022-08-10T20:25:31.211Z,21.40
2022-08-10T20:28:11.490Z,21.30
2022-08-10T20:30:44.496Z,21.20
2022-08-10T20:33:23.558Z,21.20
2022-08-10T20:36:08.208Z,21.20
2022-08-10T20:38:57.273Z,21.10
2022-08-10T20:42:00.643Z,21.00
2022-08-10T20:44:55.268Z,21.00
2022-08-10T20:47:53.849Z,21.00
2022-08-10T20:50:34.897Z,21.00
2022-08-10T20:53:08.304Z,21.00
2022-08-10T20:55:54.175Z,21.00
2022-08-10T20:58:24.092Z,21.00
2022-08-10T21:01:13.085Z,21.00
2022-08-10T21:03:59.838Z,21.00
2022-08-10T21:07:01.141Z,20.90
2022-08-10T21:09:55.698Z,20.90
2022-08-10T21:13:07.926Z,20.90
2022-08-10T21:15:57.662Z,20.90
2022-08-10T21:18:52.015Z,20.90
2022-08-10T21:21:56.996Z,20.90
2022-08-10T21:24:31.007Z,20.90
2022-08-10T21:27:15.243Z,20.80
2022-08-10T21:29:55.876Z,20.80
2022-08-10T21:32:32.492Z,20.80
2022-08-10T21:35:20.409Z,20.80
2022-08-10T21:38:27.474Z,20.70
2022-08-10T21:41:18.565Z,20.70
2022-08-10T21:44:29.970Z,20.60
2022-08-10T21:47:30.943Z,20.60
2022-08-10T21:50:07.108Z,20.50
2022-08-10T21:52:53.522Z,20.50
2022-08-10T21:55:57.211Z,20.50
2022-08-10T21:58:35.730Z,20.40
2022-08-10T22:01:09.121Z,20.40
2022-08-10T22:03:41.147Z,20.40
2022-08-10T22:06:10.262Z,20.30
2022-08-10T22:08:48.088Z,20.30
2022-08-10T22:11:20.100Z,20.30
2022-08-10T22:13:49.614Z,20.20
2022-08-10T22:16:41.457Z,20.20
2022-08-10T22:19:14.751Z,20.10
2022-08-10T22:22:02.159Z,20.10
2022-08-10T22:24:56.528Z,20.10
2022-08-10T22:27:56.511Z,20.10
2022-08-10T22:31:14.977Z,20.00
2022-08-10T22:34:08.792Z,20.00
2022-08-10T22:36:58.848Z,20.10
2022-08-10T22:40:11.266Z,20.00
2022-08-10T22:42:59.316Z,19.90
2022-08-10T22:45:28.207Z,19.90
2022-08-10T22:48:05.831Z,19.90
2022-08-10T22:50:33.499Z,19.80
2022-08-10T22:53:05.747Z,19.80
2022-08-10T22:55:40.703Z,19.80
2022-08-10T22:58:07.466Z,19.70
2022-08-10T23:00:34.772Z,19.70
2022-08-10T23:03:16.100Z,19.70
2022-08-10T23:05:56.027Z,19.70
2022-08-10T23:08:30.522Z,19.60
2022-08-10T23:11:04.256Z,19.50
2022-08-10T23:13:40.060Z,19.50
2022-08-10T23:16:22.193Z,19.50
2022-08-10T23:18:55.526Z,19.50
2022-08-10T23:22:02.832Z,19.40
2022-08-10T23:24:29.299Z,19.40
2022-08-10T23:26:58.041Z,19.30
2022-08-10T23:29:39.286Z,19.30
2022-08-10T23:32:30.687Z,19.20
2022-08-10T23:36:31.445Z,19.20
2022-08-10T23:37:46.907Z,19.20
2022-08-10T23:40:16.083Z,19.10
2022-08-10T23:42:51.506Z,19.10
2022-08-10T23:45:25.366Z,19.00
2022-08-10T23:47:58.065Z,19.10
2022-08-10T23:50:27.871Z,19.00
2022-08-10T23:53:03.875Z,19.00
2022-08-10T23:55:49.422Z,19.00
2022-08-10T23:58:29.110Z,18.90
